Time;durP1;ratioP1;P1;durP2;ratioP2;P2;SDS_P1;SDS_P2;PMS_P1;PMS_P2;Temp;Humidity;BMP_temperature;BMP_pressure;BME280_temperature;BME280_humidity;BME280_pressure;Samples;Min_cycle;Max_cycle;Signal;HPM_P1;HPM_P2
2022/01/14 00:00:59;;;;;;;18.63;12.00;;;6.40;56.80;;;;;;5046931;28;20489;-50
2022/01/14 00:03:25;;;;;;;17.77;12.20;;;6.30;57.10;;;;;;5052330;28;20196;-53
2022/01/14 00:05:50;;;;;;;20.93;13.60;;;6.00;57.60;;;;;;5049895;28;20207;-53
2022/01/14 00:08:16;;;;;;;22.90;14.57;;;6.10;58.00;;;;;;5052197;28;20193;-49
2022/01/14 00:10:48;;;;;;;23.60;14.73;;;6.20;57.80;;;;;;5051881;28;20193;-49
2022/01/14 00:13:38;;;;;;;23.87;15.97;;;6.20;57.50;;;;;;5047224;28;20285;-50
2022/01/14 00:16:00;;;;;;;22.20;14.93;;;6.20;57.40;;;;;;5051437;28;20447;-49
2022/01/14 00:18:25;;;;;;;22.13;14.60;;;6.10;57.50;;;;;;5051766;28;20450;-49
2022/01/14 00:20:51;;;;;;;19.67;13.10;;;6.00;57.90;;;;;;5049823;28;20259;-49
2022/01/14 00:23:18;;;;;;;16.20;12.40;;;6.00;57.80;;;;;;5049046;28;20196;-50
2022/01/14 00:33:56;;;;;;;18.40;13.00;;;5.80;58.50;;;;;;5049917;28;20802;-51
2022/01/14 00:36:21;;;;;;;15.50;11.70;;;5.80;58.10;;;;;;5051043;28;20427;-49
2022/01/14 00:38:47;;;;;;;18.07;12.60;;;5.70;58.20;;;;;;5051173;28;20699;-49
2022/01/14 00:41:14;;;;;;;15.17;11.20;;;5.80;58.10;;;;;;5050817;28;20222;-51
2022/01/14 00:43:41;;;;;;;18.17;12.83;;;5.90;58.00;;;;;;5051510;28;20243;-49
2022/01/14 00:46:08;;;;;;;20.20;12.73;;;5.90;57.80;;;;;;5044555;28;21277;-50
2022/01/14 00:48:34;;;;;;;16.90;12.20;;;6.00;57.80;;;;;;5050804;28;20431;-53
2022/01/14 00:50:59;;;;;;;19.43;12.13;;;6.00;57.70;;;;;;5050762;28;20444;-52
2022/01/14 00:53:25;;;;;;;18.50;11.93;;;5.80;58.00;;;;;;5054189;28;20648;-49
2022/01/14 00:56:05;;;;;;;18.00;13.23;;;5.90;58.10;;;;;;5053094;28;20218;-52
2022/01/14 01:01:14;;;;;;;18.00;11.63;;;6.10;57.50;;;;;;5035819;28;20493;-52
2022/01/14 01:03:40;;;;;;;16.67;12.43;;;5.90;57.30;;;;;;5039948;28;20424;-50
2022/01/14 01:06:07;;;;;;;16.33;11.90;;;5.70;57.80;;;;;;5047968;28;20303;-49
2022/01/14 01:08:34;;;;;;;17.07;12.53;;;5.70;58.40;;;;;;5050831;28;20604;-52
2022/01/14 01:11:03;;;;;;;19.97;12.63;;;5.70;58.10;;;;;;5050580;28;20435;-52
2022/01/14 01:13:33;;;;;;;17.30;11.83;;;5.30;58.50;;;;;;5050905;28;20435;-51
2022/01/14 01:15:59;;;;;;;20.53;12.60;;;5.20;59.30;;;;;;5047231;28;20503;-49
2022/01/14 01:18:25;;;;;;;18.00;12.87;;;5.30;59.30;;;;;;5042829;28;20510;-49
2022/01/14 01:20:51;;;;;;;17.53;12.07;;;5.50;59.20;;;;;;5043179;28;20671;-52
2022/01/14 01:23:17;;;;;;;18.27;12.80;;;5.60;58.70;;;;;;5047982;28;20232;-49
2022/01/14 01:25:49;;;;;;;18.03;12.50;;;5.70;58.40;;;;;;5049817;28;20890;-52
2022/01/14 01:28:14;;;;;;;15.73;12.80;;;5.70;58.30;;;;;;5049661;28;20949;-52
2022/01/14 01:33:15;;;;;;;18.90;11.37;;;5.70;58.30;;;;;;5050680;28;20198;-51
2022/01/14 01:35:40;;;;;;;17.80;12.73;;;5.70;58.50;;;;;;5050792;28;20419;-52
2022/01/14 01:38:06;;;;;;;20.67;13.03;;;5.80;58.30;;;;;;5049173;28;21013;-52
2022/01/14 01:40:32;;;;;;;20.20;12.43;;;5.90;58.00;;;;;;5050525;28;20277;-52
2022/01/14 01:43:02;;;;;;;19.33;13.27;;;5.70;58.00;;;;;;5049590;28;20207;-49
2022/01/14 01:45:27;;;;;;;17.47;12.80;;;5.70;58.30;;;;;;5050794;28;20657;-53
2022/01/14 01:47:54;;;;;;;22.47;14.10;;;5.80;58.10;;;;;;5049534;28;20508;-54
2022/01/14 01:50:24;;;;;;;17.20;13.63;;;5.60;58.20;;;;;;5050366;28;20243;-53
2022/01/14 01:52:50;;;;;;;16.23;12.07;;;5.50;58.50;;;;;;5049034;28;20418;-52
2022/01/14 01:55:16;;;;;;;19.17;12.90;;;5.20;59.30;;;;;;5042150;28;20482;-52
2022/01/14 01:57:46;;;;;;;23.70;13.80;;;5.00;59.90;;;;;;5049885;28;20473;-49
2022/01/14 02:00:15;;;;;;;19.10;12.80;;;5.10;60.30;;;;;;5050650;28;20420;-49
2022/01/14 02:02:42;;;;;;;20.20;12.70;;;5.20;60.20;;;;;;5049720;28;20423;-50
2022/01/14 02:05:08;;;;;;;15.73;11.80;;;5.30;60.00;;;;;;5042431;28;20822;-53
2022/01/14 02:07:34;;;;;;;21.53;13.70;;;5.30;59.60;;;;;;5045843;28;20484;-52
2022/01/14 02:10:02;;;;;;;18.73;13.83;;;5.20;59.60;;;;;;5050422;28;20423;-51
2022/01/14 02:12:36;;;;;;;18.70;12.13;;;5.10;59.50;;;;;;5047985;28;20419;-51
2022/01/14 02:15:14;;;;;;;18.00;13.80;;;5.10;59.70;;;;;;5050671;28;20427;-49
2022/01/14 02:18:12;;;;;;;18.73;12.73;;;5.00;60.30;;;;;;5049844;28;21026;-49
2022/01/14 02:23:16;;;;;;;19.23;13.07;;;5.20;59.70;;;;;;5041349;28;21661;-50
2022/01/14 02:25:44;;;;;;;20.50;12.93;;;5.20;59.70;;;;;;5048748;28;20473;-50
2022/01/14 02:28:13;;;;;;;18.20;12.80;;;5.20;59.60;;;;;;5042868;28;20962;-49
2022/01/14 02:30:41;;;;;;;16.07;11.70;;;5.30;59.40;;;;;;5049554;28;20845;-50
2022/01/14 02:33:11;;;;;;;17.70;12.60;;;4.80;60.00;;;;;;5049688;28;20432;-49
2022/01/14 02:35:39;;;;;;;20.30;13.00;;;4.70;61.00;;;;;;5050375;28;20427;-49
2022/01/14 02:38:06;;;;;;;18.80;12.67;;;4.70;61.40;;;;;;5048981;28;20451;-50
2022/01/14 02:40:31;;;;;;;18.73;12.70;;;4.70;60.90;;;;;;5050084;28;20486;-49
2022/01/14 02:43:00;;;;;;;20.13;13.13;;;4.70;61.00;;;;;;5049580;28;20448;-53
2022/01/14 02:45:34;;;;;;;16.07;12.80;;;4.60;61.20;;;;;;5051250;28;20192;-52
2022/01/14 02:48:02;;;;;;;18.87;12.10;;;4.40;61.40;;;;;;5051111;28;20423;-53
2022/01/14 02:50:36;;;;;;;20.50;13.00;;;4.40;61.70;;;;;;5053643;28;20430;-52
2022/01/14 02:53:12;;;;;;;19.00;12.80;;;4.50;61.50;;;;;;5052592;28;20957;-53
2022/01/14 02:55:43;;;;;;;16.60;11.07;;;4.70;61.10;;;;;;5050348;28;20426;-49
2022/01/14 02:58:10;;;;;;;19.03;12.90;;;4.90;60.40;;;;;;5048487;28;20416;-52
2022/01/14 03:00:37;;;;;;;19.00;12.50;;;5.10;59.80;;;;;;5045383;28;20474;-49
2022/01/14 03:03:04;;;;;;;20.90;13.57;;;5.00;59.20;;;;;;5043825;28;20442;-50
2022/01/14 03:05:30;;;;;;;18.67;12.70;;;4.40;60.20;;;;;;5053366;28;20426;-48
2022/01/14 03:07:57;;;;;;;15.73;12.40;;;4.40;61.80;;;;;;5050141;28;21249;-50
2022/01/14 03:10:23;;;;;;;17.23;12.17;;;4.50;61.30;;;;;;5041584;28;20197;-50
2022/01/14 03:12:48;;;;;;;21.83;12.73;;;4.70;61.00;;;;;;5052015;28;20664;-49
2022/01/14 03:15:15;;;;;;;20.67;12.80;;;4.80;60.10;;;;;;5051158;28;21270;-50
2022/01/14 03:17:41;;;;;;;19.93;12.60;;;4.70;60.00;;;;;;5052160;28;20192;-49
2022/01/14 03:20:11;;;;;;;21.73;13.63;;;4.70;60.40;;;;;;5050951;28;20498;-49
2022/01/14 03:22:37;;;;;;;19.70;13.50;;;4.70;60.30;;;;;;5052502;28;20442;-53
2022/01/14 03:27:52;;;;;;;18.43;12.63;;;4.30;61.40;;;;;;5045294;28;20434;-50
2022/01/14 03:30:18;;;;;;;19.47;13.23;;;4.20;62.20;;;;;;5052417;28;20424;-49
2022/01/14 03:32:45;;;;;;;16.27;12.37;;;4.10;62.30;;;;;;5052775;28;20485;-52
2022/01/14 03:35:11;;;;;;;21.13;13.10;;;4.00;62.70;;;;;;5052988;28;20786;-53
2022/01/14 03:37:37;;;;;;;21.33;13.20;;;3.70;64.10;;;;;;5059010;28;20438;-49
2022/01/14 03:40:05;;;;;;;19.50;13.47;;;3.70;64.60;;;;;;5056244;28;20426;-50
2022/01/14 03:42:31;;;;;;;20.53;13.10;;;3.60;65.00;;;;;;5049651;28;20283;-49
2022/01/14 03:44:57;;;;;;;24.27;14.93;;;3.70;65.10;;;;;;5046686;28;20459;-49
2022/01/14 03:47:23;;;;;;;17.80;13.17;;;3.90;64.50;;;;;;5051113;28;20992;-52
2022/01/14 03:49:48;;;;;;;19.67;13.87;;;4.20;63.40;;;;;;5046843;28;20231;-50
2022/01/14 03:52:14;;;;;;;20.20;13.13;;;4.40;62.40;;;;;;5047165;28;20191;-52
2022/01/14 03:54:40;;;;;;;19.83;12.47;;;4.50;62.00;;;;;;5048953;28;20229;-49
2022/01/14 03:57:06;;;;;;;19.03;11.77;;;4.70;61.40;;;;;;5048313;28;20238;-51
2022/01/14 03:59:32;;;;;;;17.70;12.43;;;4.70;60.90;;;;;;5052053;28;20231;-50
2022/01/14 04:01:57;;;;;;;20.33;13.10;;;4.90;60.50;;;;;;5051568;28;20224;-49
2022/01/14 04:04:23;;;;;;;22.80;15.37;;;5.00;59.90;;;;;;5052331;28;20431;-50
2022/01/14 04:06:49;;;;;;;23.73;14.80;;;5.00;59.60;;;;;;5051668;28;20208;-49
2022/01/14 04:09:14;;;;;;;18.37;12.97;;;5.00;59.40;;;;;;5050560;28;20196;-49
2022/01/14 04:11:40;;;;;;;16.53;12.90;;;5.10;59.30;;;;;;5050694;28;20193;-49
2022/01/14 04:15:36;;;;;;;18.97;13.10;;;4.90;59.20;;;;;;5050037;28;20234;-49
2022/01/14 04:16:52;;;;;;;18.70;12.53;;;4.90;59.20;;;;;;5051428;28;20431;-51
2022/01/14 04:19:18;;;;;;;21.97;14.27;;;4.80;59.40;;;;;;5051531;28;20470;-50
2022/01/14 04:21:44;;;;;;;18.40;12.93;;;4.70;59.80;;;;;;5051317;28;20486;-52
2022/01/14 04:24:10;;;;;;;18.63;13.10;;;4.70;59.80;;;;;;5051618;28;20227;-50
2022/01/14 04:26:36;;;;;;;20.57;13.40;;;4.70;59.70;;;;;;5049121;28;20184;-49
2022/01/14 04:29:02;;;;;;;22.57;13.97;;;4.70;59.70;;;;;;5050570;28;20972;-49
2022/01/14 04:31:27;;;;;;;17.70;12.77;;;4.70;59.60;;;;;;5051049;28;20564;-51
2022/01/14 04:33:53;;;;;;;19.50;13.33;;;4.80;59.50;;;;;;5051674;28;20423;-51
2022/01/14 04:36:19;;;;;;;24.97;13.27;;;4.80;59.30;;;;;;5049591;28;20656;-50
2022/01/14 04:38:44;;;;;;;21.50;13.60;;;4.70;59.50;;;;;;5050425;28;20200;-50
2022/01/14 04:41:10;;;;;;;21.37;13.77;;;4.70;59.30;;;;;;5051151;28;20706;-52
2022/01/14 04:43:36;;;;;;;23.10;14.07;;;4.60;59.70;;;;;;5049364;28;20287;-48
2022/01/14 04:48:33;;;;;;;19.20;13.50;;;4.50;60.10;;;;;;5050793;28;20937;-49
2022/01/14 04:51:00;;;;;;;14.30;11.87;;;4.50;60.20;;;;;;5051113;28;20457;-49
2022/01/14 04:53:26;;;;;;;17.37;13.13;;;4.50;60.30;;;;;;5051553;28;20427;-50
2022/01/14 04:55:53;;;;;;;24.87;14.60;;;4.50;60.10;;;;;;5057005;28;20579;-50
2022/01/14 04:58:19;;;;;;;21.10;12.50;;;4.60;59.80;;;;;;5044220;28;20443;-50
2022/01/14 05:00:45;;;;;;;18.63;12.90;;;4.60;59.60;;;;;;5035937;28;20826;-50
2022/01/14 05:03:10;;;;;;;21.67;13.83;;;4.80;59.40;;;;;;5049159;28;20192;-49
2022/01/14 05:05:40;;;;;;;19.57;13.70;;;4.80;59.00;;;;;;5045601;28;21007;-49
2022/01/14 05:08:10;;;;;;;21.70;15.13;;;4.90;58.80;;;;;;5049054;28;20236;-49
2022/01/14 05:11:00;;;;;;;26.83;14.50;;;4.90;58.40;;;;;;5055721;28;20442;-49
2022/01/14 05:13:25;;;;;;;21.13;13.63;;;4.80;58.70;;;;;;5052405;28;20447;-49
2022/01/14 05:15:52;;;;;;;17.30;12.20;;;4.80;58.70;;;;;;5046360;28;20451;-49
2022/01/14 05:18:17;;;;;;;15.83;12.13;;;4.80;58.90;;;;;;5038905;28;20431;-49
2022/01/14 05:20:43;;;;;;;20.90;12.77;;;4.80;58.50;;;;;;5046668;28;20506;-49
2022/01/14 05:23:09;;;;;;;18.57;12.63;;;4.40;59.60;;;;;;5038267;28;20207;-50
2022/01/14 05:25:34;;;;;;;20.73;13.70;;;4.50;59.90;;;;;;5046969;28;20200;-49
2022/01/14 05:28:00;;;;;;;22.17;13.53;;;4.70;59.70;;;;;;5049835;28;20670;-50
2022/01/14 05:30:26;;;;;;;20.13;13.57;;;4.80;59.20;;;;;;5049645;28;20591;-49
2022/01/14 05:32:53;;;;;;;17.13;12.90;;;4.80;58.80;;;;;;5050202;28;20556;-50
2022/01/14 05:35:26;;;;;;;21.77;13.90;;;4.90;58.90;;;;;;5044872;28;20203;-49
2022/01/14 05:37:52;;;;;;;20.10;12.87;;;5.00;58.60;;;;;;5049472;28;20461;-49
2022/01/14 05:40:20;;;;;;;21.77;13.40;;;5.00;58.30;;;;;;5050759;28;20419;-49
2022/01/14 05:42:46;;;;;;;21.57;15.37;;;5.10;58.20;;;;;;5050481;28;20502;-49
2022/01/14 05:45:14;;;;;;;24.43;14.67;;;5.10;57.80;;;;;;5050273;28;21077;-49
2022/01/14 05:47:40;;;;;;;20.20;13.60;;;5.10;57.60;;;;;;5049713;28;20245;-50
2022/01/14 05:50:09;;;;;;;20.73;14.00;;;5.00;57.70;;;;;;5050873;28;20431;-49
2022/01/14 05:52:34;;;;;;;21.00;13.53;;;4.80;57.70;;;;;;5039817;28;20199;-51
2022/01/14 05:55:01;;;;;;;18.87;13.07;;;4.70;58.20;;;;;;5049314;28;20427;-49
2022/01/14 05:57:27;;;;;;;21.07;13.57;;;4.70;58.40;;;;;;5048707;28;20265;-49
2022/01/14 05:59:53;;;;;;;18.40;12.80;;;4.80;58.30;;;;;;5050580;28;20423;-50
2022/01/14 06:02:18;;;;;;;20.70;12.80;;;4.80;58.20;;;;;;5049787;28;20621;-49
2022/01/14 06:04:45;;;;;;;19.20;13.13;;;4.70;58.20;;;;;;5050570;28;20219;-49
2022/01/14 06:07:10;;;;;;;22.33;13.23;;;4.50;58.60;;;;;;5049981;28;20205;-49
2022/01/14 06:09:37;;;;;;;20.07;13.20;;;4.60;58.90;;;;;;5045394;28;20469;-49
2022/01/14 06:12:03;;;;;;;23.07;14.30;;;4.50;58.70;;;;;;5049727;28;20196;-49
2022/01/14 06:14:29;;;;;;;25.00;14.33;;;4.10;59.70;;;;;;5050633;28;20431;-49
2022/01/14 06:16:54;;;;;;;22.90;13.10;;;4.20;61.50;;;;;;5049942;28;20808;-49
2022/01/14 06:19:20;;;;;;;21.70;14.53;;;4.40;60.10;;;;;;5053308;28;20336;-49
2022/01/14 06:21:46;;;;;;;20.63;13.30;;;4.50;59.50;;;;;;5056244;28;20634;-48
2022/01/14 06:24:11;;;;;;;21.53;14.40;;;4.40;59.30;;;;;;5045296;28;20199;-49
2022/01/14 06:26:37;;;;;;;18.43;13.57;;;4.10;59.60;;;;;;5035948;28;20201;-49
2022/01/14 06:29:02;;;;;;;20.63;12.97;;;4.00;60.30;;;;;;5050064;28;20560;-52
2022/01/14 06:31:28;;;;;;;20.73;13.00;;;3.80;61.00;;;;;;5053482;28;20210;-49
2022/01/14 06:33:54;;;;;;;20.83;13.43;;;3.80;61.30;;;;;;5053882;28;20278;-50
2022/01/14 06:36:19;;;;;;;22.13;13.30;;;4.10;60.90;;;;;;5053219;28;20830;-49
2022/01/14 06:38:45;;;;;;;23.30;14.07;;;4.30;60.00;;;;;;5053158;28;20223;-49
2022/01/14 06:41:11;;;;;;;20.60;12.53;;;4.40;59.80;;;;;;5053297;28;20220;-49
2022/01/14 06:43:36;;;;;;;18.37;12.70;;;4.50;59.50;;;;;;5049435;28;20196;-50
2022/01/14 06:46:02;;;;;;;18.17;12.53;;;4.30;59.20;;;;;;5053047;28;20196;-51
2022/01/14 06:48:28;;;;;;;19.40;13.33;;;4.00;60.10;;;;;;5053285;28;20184;-49
2022/01/14 06:50:54;;;;;;;17.83;13.07;;;4.00;60.60;;;;;;5051529;28;20250;-49
2022/01/14 06:53:20;;;;;;;20.40;13.07;;;4.20;60.30;;;;;;5053505;28;20196;-49
2022/01/14 06:55:46;;;;;;;18.40;12.70;;;3.80;60.90;;;;;;5053317;28;20886;-50
2022/01/14 06:58:11;;;;;;;23.10;13.23;;;3.70;61.40;;;;;;5052860;28;20200;-49
2022/01/14 07:00:37;;;;;;;22.43;13.70;;;3.60;61.80;;;;;;5049845;28;20270;-48
2022/01/14 07:03:03;;;;;;;21.27;14.00;;;3.70;62.00;;;;;;5052559;28;20197;-48
2022/01/14 07:05:28;;;;;;;23.03;14.10;;;3.90;61.80;;;;;;5053340;28;20196;-50
2022/01/14 07:07:54;;;;;;;23.33;13.60;;;4.30;60.90;;;;;;5052570;28;20625;-49
2022/01/14 07:10:20;;;;;;;18.30;13.30;;;4.40;59.90;;;;;;5052932;28;20201;-50
2022/01/14 07:12:45;;;;;;;22.60;14.57;;;4.60;59.30;;;;;;5052607;28;20188;-52
2022/01/14 07:15:13;;;;;;;21.53;15.00;;;4.70;58.80;;;;;;5053085;28;20275;-49
2022/01/14 07:17:41;;;;;;;18.30;12.53;;;4.80;58.40;;;;;;5047661;28;20727;-49
2022/01/14 07:20:12;;;;;;;15.63;12.63;;;4.90;58.10;;;;;;5053084;28;21012;-52
2022/01/14 07:22:39;;;;;;;18.33;12.90;;;4.90;57.80;;;;;;5052418;28;20439;-53
2022/01/14 07:25:06;;;;;;;16.97;12.30;;;5.00;57.60;;;;;;5047447;28;20522;-51
2022/01/14 07:27:32;;;;;;;22.00;14.60;;;5.00;57.50;;;;;;5052047;28;21081;-52
2022/01/14 07:29:58;;;;;;;19.27;13.80;;;5.00;57.40;;;;;;5051320;28;20953;-53
2022/01/14 07:32:23;;;;;;;21.07;15.20;;;5.10;57.40;;;;;;5040961;28;20453;-53
2022/01/14 07:34:49;;;;;;;20.27;14.90;;;5.50;57.80;;;;;;5040772;28;20431;-51
2022/01/14 07:37:16;;;;;;;18.17;13.67;;;6.10;57.20;;;;;;5043691;28;20196;-52
2022/01/14 07:39:41;;;;;;;21.10;13.30;;;7.10;55.50;;;;;;5052427;28;20662;-53
2022/01/14 07:42:08;;;;;;;17.70;13.60;;;8.00;53.10;;;;;;5052169;28;20491;-52
2022/01/14 07:44:33;;;;;;;22.33;14.47;;;8.90;50.20;;;;;;5050999;28;20861;-53
2022/01/14 07:46:59;;;;;;;16.83;13.43;;;9.50;48.30;;;;;;5052075;28;20439;-52
2022/01/14 07:49:25;;;;;;;15.87;12.50;;;10.20;45.70;;;;;;5050806;28;20189;-53
2022/01/14 07:51:51;;;;;;;17.17;12.63;;;10.90;44.10;;;;;;5046421;28;20564;-51
2022/01/14 07:54:17;;;;;;;20.20;14.47;;;11.40;42.80;;;;;;5052530;28;20427;-51
2022/01/14 07:56:47;;;;;;;22.97;13.73;;;11.90;41.50;;;;;;5052111;28;20184;-54
2022/01/14 07:59:15;;;;;;;20.60;14.87;;;12.00;41.30;;;;;;5052111;28;20258;-53
2022/01/14 08:01:42;;;;;;;21.23;15.20;;;12.00;41.20;;;;;;5051577;28;20536;-52
2022/01/14 08:04:07;;;;;;;19.47;14.57;;;12.10;40.90;;;;;;5052127;28;20426;-52
2022/01/14 08:06:37;;;;;;;17.97;13.80;;;12.40;40.80;;;;;;5051680;28;20431;-52
2022/01/14 08:09:03;;;;;;;17.37;13.73;;;12.40;40.20;;;;;;5039169;28;20201;-52
2022/01/14 08:11:29;;;;;;;22.40;15.80;;;12.30;40.50;;;;;;5049738;28;20956;-51
2022/01/14 08:13:55;;;;;;;24.00;17.13;;;12.00;40.80;;;;;;5051869;28;20193;-51
2022/01/14 08:16:20;;;;;;;19.10;15.53;;;11.60;41.10;;;;;;5051481;28;20241;-50
2022/01/14 08:18:46;;;;;;;20.73;15.70;;;11.10;42.20;;;;;;5051424;28;20889;-49
2022/01/14 08:21:11;;;;;;;21.60;15.50;;;10.50;43.20;;;;;;5051526;28;20228;-50
2022/01/14 08:23:39;;;;;;;21.60;16.70;;;10.00;44.30;;;;;;5047324;28;20194;-49
2022/01/14 08:26:05;;;;;;;21.07;15.80;;;9.30;46.50;;;;;;5049179;28;20251;-49
2022/01/14 08:28:30;;;;;;;20.50;13.70;;;8.70;47.90;;;;;;5051464;28;20472;-49
2022/01/14 08:30:56;;;;;;;22.70;15.73;;;7.90;49.40;;;;;;5051428;28;20471;-50
2022/01/14 08:33:22;;;;;;;20.43;15.33;;;7.50;51.10;;;;;;5055200;28;20203;-49
2022/01/14 08:35:48;;;;;;;23.70;17.33;;;7.20;52.40;;;;;;5045342;28;20189;-49
2022/01/14 08:38:14;;;;;;;23.00;15.73;;;6.80;53.60;;;;;;5044580;28;20187;-49
2022/01/14 08:40:40;;;;;;;23.97;16.00;;;6.70;54.20;;;;;;5043845;28;20221;-49
2022/01/14 08:43:05;;;;;;;22.50;14.67;;;6.40;54.40;;;;;;5031618;28;20193;-50
2022/01/14 08:45:31;;;;;;;23.50;15.10;;;6.30;55.10;;;;;;5051440;28;20837;-51
2022/01/14 08:47:57;;;;;;;20.97;15.67;;;6.10;56.30;;;;;;5050598;28;20200;-49
2022/01/14 08:50:25;;;;;;;22.97;14.53;;;6.10;56.50;;;;;;5051350;28;20189;-48
2022/01/14 08:52:51;;;;;;;21.40;15.40;;;6.10;56.30;;;;;;5044318;28;20217;-51
2022/01/14 08:55:19;;;;;;;23.10;13.90;;;6.10;56.70;;;;;;5051625;28;20477;-53
2022/01/14 08:57:45;;;;;;;21.10;15.87;;;6.30;56.90;;;;;;5050483;28;20431;-49
2022/01/14 09:00:13;;;;;;;24.97;15.30;;;6.30;56.70;;;;;;5044535;28;20442;-53
2022/01/14 09:02:38;;;;;;;25.57;15.47;;;6.30;56.90;;;;;;5051233;28;20446;-50
2022/01/14 09:05:05;;;;;;;22.53;14.73;;;6.30;56.80;;;;;;5043700;28;21280;-50
2022/01/14 09:07:30;;;;;;;21.90;15.60;;;6.30;57.20;;;;;;5050172;28;20193;-53
2022/01/14 09:09:56;;;;;;;22.33;15.93;;;6.50;56.90;;;;;;5051178;28;20435;-52
2022/01/14 09:12:22;;;;;;;24.97;17.83;;;6.60;56.80;;;;;;5050458;28;20193;-50
2022/01/14 09:14:48;;;;;;;23.50;16.67;;;6.60;57.20;;;;;;5050961;28;20185;-52
2022/01/14 09:17:14;;;;;;;20.17;14.93;;;6.40;57.10;;;;;;5036515;28;20216;-53
2022/01/14 09:19:40;;;;;;;22.80;17.10;;;6.40;57.80;;;;;;5050875;28;20556;-50
2022/01/14 09:22:07;;;;;;;19.00;14.60;;;6.40;58.00;;;;;;5050081;28;20490;-52
2022/01/14 09:24:36;;;;;;;25.63;16.00;;;6.60;57.50;;;;;;5050518;28;20427;-53
2022/01/14 09:27:02;;;;;;;19.70;13.90;;;6.50;57.30;;;;;;5049825;28;20489;-53
2022/01/14 09:29:28;;;;;;;20.70;14.00;;;6.50;57.20;;;;;;5042315;28;20431;-51
2022/01/14 09:31:54;;;;;;;22.00;14.87;;;6.50;57.00;;;;;;5045081;28;20439;-51
2022/01/14 09:34:19;;;;;;;25.90;14.70;;;6.60;56.70;;;;;;5043678;28;20196;-52
2022/01/14 09:36:45;;;;;;;20.70;13.80;;;6.80;56.60;;;;;;5053174;28;20254;-49
2022/01/14 09:39:11;;;;;;;20.33;14.90;;;7.00;56.50;;;;;;5048623;28;20223;-49
2022/01/14 09:41:37;;;;;;;20.07;13.13;;;7.20;56.00;;;;;;5053666;28;20220;-49
2022/01/14 09:44:03;;;;;;;20.00;14.50;;;7.40;55.40;;;;;;5039877;28;20446;-52
2022/01/14 09:46:29;;;;;;;20.83;14.37;;;7.40;55.10;;;;;;5049956;28;20564;-48
2022/01/14 09:48:55;;;;;;;18.47;13.30;;;7.60;54.50;;;;;;5043579;28;20423;-51
2022/01/14 09:51:21;;;;;;;20.43;14.33;;;7.70;54.20;;;;;;5049478;28;20938;-52
2022/01/14 09:53:47;;;;;;;19.53;14.30;;;7.90;53.60;;;;;;5052666;28;20218;-49
2022/01/14 09:56:22;;;;;;;18.23;14.30;;;8.30;52.90;;;;;;5054211;28;20477;-49
2022/01/14 09:58:49;;;;;;;18.90;14.20;;;8.70;51.80;;;;;;5051334;28;20834;-52
2022/01/14 10:01:21;;;;;;;20.73;14.40;;;8.80;51.50;;;;;;5053752;28;21229;-49
2022/01/14 10:04:02;;;;;;;19.97;14.97;;;8.60;51.30;;;;;;5051045;28;20428;-49
2022/01/14 10:06:37;;;;;;;20.33;14.63;;;9.00;51.50;;;;;;5039416;28;20471;-51
2022/01/14 10:09:25;;;;;;;18.43;14.60;;;9.60;50.90;;;;;;5048578;28;20433;-50
2022/01/14 10:12:05;;;;;;;21.10;14.87;;;10.10;49.10;;;;;;5049750;28;20438;-49
2022/01/14 10:14:32;;;;;;;18.13;14.93;;;10.40;48.00;;;;;;5053591;28;20503;-49
2022/01/14 10:17:00;;;;;;;20.77;14.27;;;10.50;46.60;;;;;;5053359;28;20442;-49
2022/01/14 10:19:28;;;;;;;15.70;13.20;;;10.60;46.60;;;;;;5053726;28;20984;-50
2022/01/14 10:21:55;;;;;;;16.83;13.80;;;10.80;47.00;;;;;;5053557;28;20482;-50
2022/01/14 10:24:27;;;;;;;18.27;15.10;;;11.10;45.80;;;;;;5050689;28;20514;-53
2022/01/14 10:26:59;;;;;;;20.20;14.73;;;11.30;45.00;;;;;;5053168;28;20431;-51
2022/01/14 10:29:39;;;;;;;16.53;13.70;;;11.60;44.70;;;;;;5053864;28;20422;-49
2022/01/14 10:32:08;;;;;;;17.23;13.67;;;11.80;44.40;;;;;;5053392;28;20430;-49
2022/01/14 10:34:35;;;;;;;17.30;13.63;;;12.00;43.80;;;;;;5053581;28;20418;-50
2022/01/14 10:37:16;;;;;;;18.23;13.33;;;12.20;43.50;;;;;;5052225;28;20500;-51
2022/01/14 10:39:45;;;;;;;22.17;13.37;;;12.40;42.90;;;;;;5053796;28;20926;-51
2022/01/14 10:42:25;;;;;;;19.13;14.13;;;12.50;42.10;;;;;;5046417;28;20568;-52
2022/01/14 10:44:51;;;;;;;15.90;13.60;;;12.70;42.00;;;;;;5053682;28;20938;-51
2022/01/14 10:47:23;;;;;;;16.53;13.60;;;12.80;41.40;;;;;;5055868;28;20459;-52
2022/01/14 10:49:54;;;;;;;16.73;12.40;;;13.00;41.10;;;;;;5055383;28;20462;-50
2022/01/14 10:52:25;;;;;;;17.13;13.63;;;13.00;40.80;;;;;;5050059;28;20802;-51
2022/01/14 10:54:54;;;;;;;15.07;12.70;;;13.10;40.60;;;;;;5053858;28;20431;-49
2022/01/14 10:57:27;;;;;;;14.20;12.70;;;13.20;41.00;;;;;;5052057;28;20518;-52
2022/01/14 11:00:13;;;;;;;16.10;14.50;;;13.20;41.20;;;;;;5052766;28;20972;-49
2022/01/14 11:02:42;;;;;;;16.70;13.10;;;13.20;41.40;;;;;;5052839;28;20906;-50
2022/01/14 11:05:23;;;;;;;15.00;12.17;;;13.20;41.10;;;;;;5046666;28;20923;-49
2022/01/14 11:07:51;;;;;;;14.33;12.30;;;13.40;41.00;;;;;;5051267;28;20481;-53
2022/01/14 11:10:24;;;;;;;14.20;12.20;;;13.50;40.60;;;;;;5053354;28;20426;-51
2022/01/14 11:12:54;;;;;;;14.20;11.97;;;13.70;40.20;;;;;;5052500;28;20453;-50
2022/01/14 11:15:22;;;;;;;15.27;12.63;;;13.90;39.30;;;;;;5045012;28;20902;-50
2022/01/14 11:17:51;;;;;;;15.70;12.60;;;14.10;38.90;;;;;;5051907;28;20507;-50
2022/01/14 11:20:29;;;;;;;15.73;13.00;;;14.10;38.60;;;;;;5051458;28;20947;-51
2022/01/14 11:25:52;;;;;;;18.27;14.30;;;14.40;39.00;;;;;;5053144;28;20450;-54
2022/01/14 11:28:26;;;;;;;13.73;11.80;;;14.40;38.90;;;;;;5052763;28;20423;-52
2022/01/14 11:30:51;;;;;;;14.30;11.60;;;14.40;38.40;;;;;;5052632;28;20455;-51
2022/01/14 11:33:19;;;;;;;14.43;11.70;;;14.20;38.50;;;;;;5052207;28;20536;-52
2022/01/14 11:35:56;;;;;;;15.93;12.33;;;14.10;38.80;;;;;;5052938;28;20222;-54
2022/01/14 11:38:42;;;;;;;13.87;11.97;;;14.10;39.00;;;;;;5051939;28;20446;-53
2022/01/14 11:41:10;;;;;;;14.33;11.60;;;13.80;39.00;;;;;;5052057;28;20573;-50
2022/01/14 11:43:41;;;;;;;14.53;12.50;;;13.80;39.20;;;;;;5052471;28;20426;-49
2022/01/14 11:46:10;;;;;;;16.77;11.83;;;13.60;39.50;;;;;;5043020;28;20435;-54
2022/01/14 11:48:42;;;;;;;13.80;11.20;;;13.40;40.10;;;;;;5049766;28;20435;-53
2022/01/14 11:51:10;;;;;;;14.70;12.23;;;13.50;39.90;;;;;;5061205;28;20446;-52
2022/01/14 11:53:42;;;;;;;14.03;12.50;;;13.60;39.70;;;;;;5051782;28;20443;-49
2022/01/14 11:56:30;;;;;;;13.87;11.90;;;13.80;39.50;;;;;;5049892;28;20443;-53
2022/01/14 11:59:18;;;;;;;16.37;13.47;;;13.80;39.70;;;;;;5043504;28;20946;-50
2022/01/14 12:01:44;;;;;;;14.70;12.90;;;13.70;39.80;;;;;;5049217;28;20483;-51
2022/01/14 12:04:10;;;;;;;13.63;12.00;;;13.60;39.90;;;;;;5041625;28;20435;-49
2022/01/14 12:07:08;;;;;;;13.73;12.27;;;13.60;40.00;;;;;;5049441;28;20506;-50
2022/01/14 12:10:09;;;;;;;13.80;12.20;;;13.70;40.10;;;;;;5026650;28;20212;-50
2022/01/14 12:12:35;;;;;;;14.00;11.90;;;13.70;40.30;;;;;;5050014;28;20426;-50
2022/01/14 12:15:04;;;;;;;18.80;13.43;;;13.90;39.90;;;;;;5051088;28;20476;-50
2022/01/14 12:17:38;;;;;;;14.90;12.13;;;13.60;40.00;;;;;;5050840;28;20934;-50
2022/01/14 12:20:17;;;;;;;14.57;12.57;;;13.60;40.50;;;;;;5052033;28;20517;-50
2022/01/14 12:23:09;;;;;;;13.23;11.43;;;13.80;40.50;;;;;;5048781;28;20490;-53
2022/01/14 12:25:43;;;;;;;15.30;12.17;;;14.00;39.50;;;;;;5048943;28;20431;-51
2022/01/14 12:28:20;;;;;;;15.33;11.50;;;14.00;39.20;;;;;;5050856;28;20427;-54
2022/01/14 12:31:02;;;;;;;17.80;11.27;;;13.90;38.80;;;;;;5051620;28;20423;-53
2022/01/14 12:33:50;;;;;;;16.23;12.23;;;13.70;39.70;;;;;;5051883;28;20430;-53
2022/01/14 12:36:21;;;;;;;13.13;9.90;;;13.80;39.60;;;;;;5051100;28;20587;-52
2022/01/14 12:38:48;;;;;;;15.70;12.30;;;14.00;39.50;;;;;;5049678;28;20438;-51
2022/01/14 12:41:19;;;;;;;12.53;10.70;;;14.30;39.30;;;;;;5047624;28;20525;-50
2022/01/14 12:43:50;;;;;;;12.07;10.40;;;14.50;38.60;;;;;;5051661;28;20958;-50
2022/01/14 12:49:05;;;;;;;12.60;10.13;;;14.80;37.60;;;;;;5050855;28;20431;-50
2022/01/14 12:51:32;;;;;;;12.93;9.80;;;14.70;37.60;;;;;;5050801;28;20427;-50
2022/01/14 12:53:59;;;;;;;11.57;9.37;;;14.80;37.20;;;;;;5051348;28;20420;-50
2022/01/14 12:56:33;;;;;;;13.03;10.30;;;15.00;37.30;;;;;;5049904;28;20464;-51
2022/01/14 12:59:08;;;;;;;12.10;10.60;;;15.10;36.80;;;;;;5053643;28;20523;-50
2022/01/14 13:01:39;;;;;;;13.40;11.47;;;15.10;38.10;;;;;;5059088;28;20969;-51
2022/01/14 13:04:10;;;;;;;13.23;10.57;;;15.30;37.80;;;;;;5041368;28;20439;-50
2022/01/14 13:06:41;;;;;;;13.33;11.10;;;15.30;37.70;;;;;;5049598;28;20442;-50